sensor_id;sensor_type;location;lat;lon;timestamp;temperature;humidity
40932;DHT22;36257;46.052;12.540;2022-09-21T00:00:38;14.80;79.60
40932;DHT22;36257;46.052;12.540;2022-09-21T00:03:05;14.80;79.50
40932;DHT22;36257;46.052;12.540;2022-09-21T00:05:31;14.80;79.40
40932;DHT22;36257;46.052;12.540;2022-09-21T00:08:04;14.80;79.70
40932;DHT22;36257;46.052;12.540;2022-09-21T00:10:30;14.80;79.40
40932;DHT22;36257;46.052;12.540;2022-09-21T00:12:57;14.80;79.90
40932;DHT22;36257;46.052;12.540;2022-09-21T00:15:24;14.70;80.10
40932;DHT22;36257;46.052;12.540;2022-09-21T00:17:54;14.60;80.30
40932;DHT22;36257;46.052;12.540;2022-09-21T00:20:19;14.50;80.50
40932;DHT22;36257;46.052;12.540;2022-09-21T00:22:49;14.50;80.40
40932;DHT22;36257;46.052;12.540;2022-09-21T00:25:15;14.50;80.80
40932;DHT22;36257;46.052;12.540;2022-09-21T00:27:41;14.40;80.60
40932;DHT22;36257;46.052;12.540;2022-09-21T00:30:08;14.40;80.30
40932;DHT22;36257;46.052;12.540;2022-09-21T00:32:36;14.30;80.00
40932;DHT22;36257;46.052;12.540;2022-09-21T00:35:03;14.20;79.70
40932;DHT22;36257;46.052;12.540;2022-09-21T00:37:29;14.20;80.10
40932;DHT22;36257;46.052;12.540;2022-09-21T00:39:55;14.20;80.90
40932;DHT22;36257;46.052;12.540;2022-09-21T00:42:47;14.20;81.10
40932;DHT22;36257;46.052;12.540;2022-09-21T00:45:12;14.10;80.20
40932;DHT22;36257;46.052;12.540;2022-09-21T00:47:47;14.10;80.60
40932;DHT22;36257;46.052;12.540;2022-09-21T00:50:19;14.10;80.80
40932;DHT22;36257;46.052;12.540;2022-09-21T00:52:50;14.20;80.60
40932;DHT22;36257;46.052;12.540;2022-09-21T00:57:47;14.10;82.10
40932;DHT22;36257;46.052;12.540;2022-09-21T01:00:14;14.00;82.00
40932;DHT22;36257;46.052;12.540;2022-09-21T01:02:40;14.00;82.20
40932;DHT22;36257;46.052;12.540;2022-09-21T01:05:07;14.10;81.90
40932;DHT22;36257;46.052;12.540;2022-09-21T01:07:36;14.00;81.40
40932;DHT22;36257;46.052;12.540;2022-09-21T01:10:09;14.00;81.70
40932;DHT22;36257;46.052;12.540;2022-09-21T01:18:37;13.80;81.20
40932;DHT22;36257;46.052;12.540;2022-09-21T01:21:19;13.80;81.50
40932;DHT22;36257;46.052;12.540;2022-09-21T01:24:17;13.70;81.00
40932;DHT22;36257;46.052;12.540;2022-09-21T01:35:16;13.90;80.60
40932;DHT22;36257;46.052;12.540;2022-09-21T01:40:27;13.80;80.00
40932;DHT22;36257;46.052;12.540;2022-09-21T01:42:55;13.80;80.30
40932;DHT22;36257;46.052;12.540;2022-09-21T01:45:23;13.80;80.10
40932;DHT22;36257;46.052;12.540;2022-09-21T01:47:51;13.80;79.90
40932;DHT22;36257;46.052;12.540;2022-09-21T01:50:19;13.80;80.10
40932;DHT22;36257;46.052;12.540;2022-09-21T01:52:56;13.80;80.50
40932;DHT22;36257;46.052;12.540;2022-09-21T01:55:24;13.70;80.80
40932;DHT22;36257;46.052;12.540;2022-09-21T01:57:59;13.70;80.50
40932;DHT22;36257;46.052;12.540;2022-09-21T02:00:28;13.70;80.00
40932;DHT22;36257;46.052;12.540;2022-09-21T02:03:20;13.60;80.00
40932;DHT22;36257;46.052;12.540;2022-09-21T02:05:42;13.60;80.40
40932;DHT22;36257;46.052;12.540;2022-09-21T02:08:09;13.50;80.50
40932;DHT22;36257;46.052;12.540;2022-09-21T02:10:47;13.50;80.60
40932;DHT22;36257;46.052;12.540;2022-09-21T02:13:14;13.40;80.30
40932;DHT22;36257;46.052;12.540;2022-09-21T02:22:01;13.40;79.80
40932;DHT22;36257;46.052;12.540;2022-09-21T02:35:15;13.30;79.40
40932;DHT22;36257;46.052;12.540;2022-09-21T02:37:56;13.30;79.30
40932;DHT22;36257;46.052;12.540;2022-09-21T02:43:26;13.30;79.40
40932;DHT22;36257;46.052;12.540;2022-09-21T02:46:09;13.30;79.10
40932;DHT22;36257;46.052;12.540;2022-09-21T02:48:45;13.20;79.20
40932;DHT22;36257;46.052;12.540;2022-09-21T02:51:25;13.20;79.60
40932;DHT22;36257;46.052;12.540;2022-09-21T02:53:54;13.10;80.10
40932;DHT22;36257;46.052;12.540;2022-09-21T02:56:20;13.00;79.70
40932;DHT22;36257;46.052;12.540;2022-09-21T02:58:49;13.10;79.60
40932;DHT22;36257;46.052;12.540;2022-09-21T03:01:19;13.00;79.20
40932;DHT22;36257;46.052;12.540;2022-09-21T03:03:46;13.10;79.10
40932;DHT22;36257;46.052;12.540;2022-09-21T03:06:12;13.10;79.00
40932;DHT22;36257;46.052;12.540;2022-09-21T03:08:37;13.10;78.50
40932;DHT22;36257;46.052;12.540;2022-09-21T03:11:03;13.10;78.60
40932;DHT22;36257;46.052;12.540;2022-09-21T03:13:29;13.10;78.40
40932;DHT22;36257;46.052;12.540;2022-09-21T03:16:04;13.10;78.50
40932;DHT22;36257;46.052;12.540;2022-09-21T03:18:30;13.10;78.60
40932;DHT22;36257;46.052;12.540;2022-09-21T03:20:56;13.00;78.50
40932;DHT22;36257;46.052;12.540;2022-09-21T03:23:22;13.00;78.60
40932;DHT22;36257;46.052;12.540;2022-09-21T03:25:48;13.00;78.40
40932;DHT22;36257;46.052;12.540;2022-09-21T03:28:14;13.00;78.10
40932;DHT22;36257;46.052;12.540;2022-09-21T03:30:41;12.90;78.20
40932;DHT22;36257;46.052;12.540;2022-09-21T03:33:07;13.00;78.60
40932;DHT22;36257;46.052;12.540;2022-09-21T03:35:33;13.00;78.30
40932;DHT22;36257;46.052;12.540;2022-09-21T03:37:59;13.00;78.20
40932;DHT22;36257;46.052;12.540;2022-09-21T03:40:25;13.00;78.00
40932;DHT22;36257;46.052;12.540;2022-09-21T03:42:52;13.00;77.80
40932;DHT22;36257;46.052;12.540;2022-09-21T03:45:18;12.90;78.00
40932;DHT22;36257;46.052;12.540;2022-09-21T03:47:46;12.90;77.70
40932;DHT22;36257;46.052;12.540;2022-09-21T03:50:13;12.90;77.80
40932;DHT22;36257;46.052;12.540;2022-09-21T03:52:39;12.80;78.10
40932;DHT22;36257;46.052;12.540;2022-09-21T03:55:06;12.80;78.00
40932;DHT22;36257;46.052;12.540;2022-09-21T03:57:33;12.80;77.50
40932;DHT22;36257;46.052;12.540;2022-09-21T03:59:59;12.80;77.60
40932;DHT22;36257;46.052;12.540;2022-09-21T04:02:27;12.80;77.30
40932;DHT22;36257;46.052;12.540;2022-09-21T04:04:53;12.80;77.30
40932;DHT22;36257;46.052;12.540;2022-09-21T04:07:18;12.80;77.20
40932;DHT22;36257;46.052;12.540;2022-09-21T04:09:44;12.80;76.90
40932;DHT22;36257;46.052;12.540;2022-09-21T04:12:09;12.80;76.90
40932;DHT22;36257;46.052;12.540;2022-09-21T04:14:35;12.80;77.40
40932;DHT22;36257;46.052;12.540;2022-09-21T04:17:01;12.80;77.60
40932;DHT22;36257;46.052;12.540;2022-09-21T04:19:27;12.70;77.70
40932;DHT22;36257;46.052;12.540;2022-09-21T04:21:52;12.70;78.30
40932;DHT22;36257;46.052;12.540;2022-09-21T04:24:19;12.70;78.50
40932;DHT22;36257;46.052;12.540;2022-09-21T04:26:45;12.60;78.00
40932;DHT22;36257;46.052;12.540;2022-09-21T04:29:14;12.60;78.70
40932;DHT22;36257;46.052;12.540;2022-09-21T04:31:41;12.60;78.70
40932;DHT22;36257;46.052;12.540;2022-09-21T04:34:08;12.60;78.40
40932;DHT22;36257;46.052;12.540;2022-09-21T04:36:36;12.60;78.80
40932;DHT22;36257;46.052;12.540;2022-09-21T04:39:02;12.50;78.70
40932;DHT22;36257;46.052;12.540;2022-09-21T04:41:28;12.40;78.70
40932;DHT22;36257;46.052;12.540;2022-09-21T04:43:54;12.40;79.10
40932;DHT22;36257;46.052;12.540;2022-09-21T04:46:19;12.40;79.30
40932;DHT22;36257;46.052;12.540;2022-09-21T04:48:46;12.30;79.40
40932;DHT22;36257;46.052;12.540;2022-09-21T04:51:13;12.30;80.50
40932;DHT22;36257;46.052;12.540;2022-09-21T04:53:40;12.30;81.20
40932;DHT22;36257;46.052;12.540;2022-09-21T04:56:07;12.30;81.30
40932;DHT22;36257;46.052;12.540;2022-09-21T04:58:34;12.20;80.10
40932;DHT22;36257;46.052;12.540;2022-09-21T05:01:00;12.20;80.70
40932;DHT22;36257;46.052;12.540;2022-09-21T05:03:26;12.20;80.60
40932;DHT22;36257;46.052;12.540;2022-09-21T05:05:54;12.10;81.20
40932;DHT22;36257;46.052;12.540;2022-09-21T05:08:21;12.10;82.00
40932;DHT22;36257;46.052;12.540;2022-09-21T05:11:08;12.10;81.80
40932;DHT22;36257;46.052;12.540;2022-09-21T05:13:34;12.10;81.80
40932;DHT22;36257;46.052;12.540;2022-09-21T05:16:00;12.00;81.80
40932;DHT22;36257;46.052;12.540;2022-09-21T05:18:26;11.90;81.50
40932;DHT22;36257;46.052;12.540;2022-09-21T05:20:56;12.00;81.40
40932;DHT22;36257;46.052;12.540;2022-09-21T05:23:22;12.00;81.70
40932;DHT22;36257;46.052;12.540;2022-09-21T05:25:49;12.00;81.80
40932;DHT22;36257;46.052;12.540;2022-09-21T05:28:16;12.00;81.70
40932;DHT22;36257;46.052;12.540;2022-09-21T05:30:44;12.00;81.90
40932;DHT22;36257;46.052;12.540;2022-09-21T05:33:13;12.00;81.70
40932;DHT22;36257;46.052;12.540;2022-09-21T05:35:58;12.10;81.90
40932;DHT22;36257;46.052;12.540;2022-09-21T05:38:25;12.10;82.30
40932;DHT22;36257;46.052;12.540;2022-09-21T05:40:51;12.10;82.30
40932;DHT22;36257;46.052;12.540;2022-09-21T05:43:18;12.20;82.20
40932;DHT22;36257;46.052;12.540;2022-09-21T05:45:45;12.30;82.00
40932;DHT22;36257;46.052;12.540;2022-09-21T05:48:16;12.50;81.70
40932;DHT22;36257;46.052;12.540;2022-09-21T05:59:28;12.90;80.70
40932;DHT22;36257;46.052;12.540;2022-09-21T06:02:27;13.10;80.40
40932;DHT22;36257;46.052;12.540;2022-09-21T06:04:58;13.30;80.60
40932;DHT22;36257;46.052;12.540;2022-09-21T06:07:26;13.50;79.60
40932;DHT22;36257;46.052;12.540;2022-09-21T06:09:52;13.60;81.20
40932;DHT22;36257;46.052;12.540;2022-09-21T06:12:18;13.80;80.10
40932;DHT22;36257;46.052;12.540;2022-09-21T06:14:44;14.00;80.90
40932;DHT22;36257;46.052;12.540;2022-09-21T06:17:09;14.10;78.70
40932;DHT22;36257;46.052;12.540;2022-09-21T06:19:35;14.30;79.10
40932;DHT22;36257;46.052;12.540;2022-09-21T06:22:01;14.50;77.80
40932;DHT22;36257;46.052;12.540;2022-09-21T06:24:26;14.60;76.80
40932;DHT22;36257;46.052;12.540;2022-09-21T06:26:52;14.80;76.40
40932;DHT22;36257;46.052;12.540;2022-09-21T06:29:17;15.10;76.50
40932;DHT22;36257;46.052;12.540;2022-09-21T06:31:49;15.30;74.40
40932;DHT22;36257;46.052;12.540;2022-09-21T06:34:15;15.50;73.10
40932;DHT22;36257;46.052;12.540;2022-09-21T06:36:40;15.80;74.80
40932;DHT22;36257;46.052;12.540;2022-09-21T06:39:06;16.00;71.10
40932;DHT22;36257;46.052;12.540;2022-09-21T06:41:32;16.10;71.80
40932;DHT22;36257;46.052;12.540;2022-09-21T06:43:57;16.30;72.10
40932;DHT22;36257;46.052;12.540;2022-09-21T06:46:23;16.50;71.80
40932;DHT22;36257;46.052;12.540;2022-09-21T06:48:48;16.70;68.80
40932;DHT22;36257;46.052;12.540;2022-09-21T06:51:14;16.90;68.40
40932;DHT22;36257;46.052;12.540;2022-09-21T06:53:40;17.00;67.00
40932;DHT22;36257;46.052;12.540;2022-09-21T06:56:07;17.20;67.10
40932;DHT22;36257;46.052;12.540;2022-09-21T06:58:34;17.40;70.00
40932;DHT22;36257;46.052;12.540;2022-09-21T07:01:08;17.50;67.90
40932;DHT22;36257;46.052;12.540;2022-09-21T07:03:34;17.70;66.60
40932;DHT22;36257;46.052;12.540;2022-09-21T07:06:00;17.90;66.80
40932;DHT22;36257;46.052;12.540;2022-09-21T07:08:26;18.10;65.60
40932;DHT22;36257;46.052;12.540;2022-09-21T07:10:52;18.20;65.40
40932;DHT22;36257;46.052;12.540;2022-09-21T07:13:17;18.40;64.30
40932;DHT22;36257;46.052;12.540;2022-09-21T07:15:43;18.20;61.60
40932;DHT22;36257;46.052;12.540;2022-09-21T07:18:13;18.30;64.60
40932;DHT22;36257;46.052;12.540;2022-09-21T07:20:39;18.40;62.10
40932;DHT22;36257;46.052;12.540;2022-09-21T07:23:12;18.30;62.20
40932;DHT22;36257;46.052;12.540;2022-09-21T07:25:42;18.40;64.30
40932;DHT22;36257;46.052;12.540;2022-09-21T07:28:09;18.40;63.10
40932;DHT22;36257;46.052;12.540;2022-09-21T07:30:39;18.60;63.60
40932;DHT22;36257;46.052;12.540;2022-09-21T07:33:05;18.60;65.60
40932;DHT22;36257;46.052;12.540;2022-09-21T07:35:32;18.60;62.30
40932;DHT22;36257;46.052;12.540;2022-09-21T07:37:59;18.50;61.90
40932;DHT22;36257;46.052;12.540;2022-09-21T07:40:25;18.50;63.30
40932;DHT22;36257;46.052;12.540;2022-09-21T07:42:51;18.60;63.70
40932;DHT22;36257;46.052;12.540;2022-09-21T07:45:17;18.90;64.50
40932;DHT22;36257;46.052;12.540;2022-09-21T07:47:43;19.20;63.00
40932;DHT22;36257;46.052;12.540;2022-09-21T07:50:09;19.40;63.50
40932;DHT22;36257;46.052;12.540;2022-09-21T07:52:34;19.60;62.50
40932;DHT22;36257;46.052;12.540;2022-09-21T07:55:00;19.60;62.10
40932;DHT22;36257;46.052;12.540;2022-09-21T07:57:26;19.70;62.30
40932;DHT22;36257;46.052;12.540;2022-09-21T08:00:11;19.90;61.90
40932;DHT22;36257;46.052;12.540;2022-09-21T08:02:37;20.00;60.90
40932;DHT22;36257;46.052;12.540;2022-09-21T08:05:02;20.00;59.40
40932;DHT22;36257;46.052;12.540;2022-09-21T08:07:28;20.00;58.90
40932;DHT22;36257;46.052;12.540;2022-09-21T08:09:54;19.90;58.50
40932;DHT22;36257;46.052;12.540;2022-09-21T08:12:20;20.10;60.60
40932;DHT22;36257;46.052;12.540;2022-09-21T08:14:46;20.30;57.70
40932;DHT22;36257;46.052;12.540;2022-09-21T08:17:13;20.50;57.20
40932;DHT22;36257;46.052;12.540;2022-09-21T08:19:39;20.30;56.30
40932;DHT22;36257;46.052;12.540;2022-09-21T08:22:05;20.10;57.70
40932;DHT22;36257;46.052;12.540;2022-09-21T08:24:48;20.40;60.10
40932;DHT22;36257;46.052;12.540;2022-09-21T08:27:13;20.70;56.70
40932;DHT22;36257;46.052;12.540;2022-09-21T08:29:39;20.90;56.40
40932;DHT22;36257;46.052;12.540;2022-09-21T08:32:04;20.80;55.50
40932;DHT22;36257;46.052;12.540;2022-09-21T08:34:30;20.70;56.90
40932;DHT22;36257;46.052;12.540;2022-09-21T08:36:56;20.80;57.80
40932;DHT22;36257;46.052;12.540;2022-09-21T08:39:21;21.10;59.60
40932;DHT22;36257;46.052;12.540;2022-09-21T08:44:46;21.60;56.60
40932;DHT22;36257;46.052;12.540;2022-09-21T08:47:20;21.40;55.40
40932;DHT22;36257;46.052;12.540;2022-09-21T08:49:57;21.10;55.40
40932;DHT22;36257;46.052;12.540;2022-09-21T08:52:24;21.10;56.10
40932;DHT22;36257;46.052;12.540;2022-09-21T08:54:54;21.10;57.30
40932;DHT22;36257;46.052;12.540;2022-09-21T08:57:33;21.40;58.80
40932;DHT22;36257;46.052;12.540;2022-09-21T09:00:07;21.90;60.00
40932;DHT22;36257;46.052;12.540;2022-09-21T09:05:43;22.70;58.00
40932;DHT22;36257;46.052;12.540;2022-09-21T09:22:08;22.50;54.70
40932;DHT22;36257;46.052;12.540;2022-09-21T09:24:46;22.60;55.00
40932;DHT22;36257;46.052;12.540;2022-09-21T09:27:27;22.20;54.70
40932;DHT22;36257;46.052;12.540;2022-09-21T09:30:05;22.00;55.10
40932;DHT22;36257;46.052;12.540;2022-09-21T09:32:42;22.10;55.00
40932;DHT22;36257;46.052;12.540;2022-09-21T09:37:46;22.40;57.10
40932;DHT22;36257;46.052;12.540;2022-09-21T09:40:13;22.20;55.70
40932;DHT22;36257;46.052;12.540;2022-09-21T09:42:53;22.20;57.10
40932;DHT22;36257;46.052;12.540;2022-09-21T09:48:29;22.90;55.70
40932;DHT22;36257;46.052;12.540;2022-09-21T09:50:57;23.10;53.80
40932;DHT22;36257;46.052;12.540;2022-09-21T09:53:25;23.10;53.00
40932;DHT22;36257;46.052;12.540;2022-09-21T09:55:53;23.20;55.80
40932;DHT22;36257;46.052;12.540;2022-09-21T09:58:22;23.30;52.80
40932;DHT22;36257;46.052;12.540;2022-09-21T10:00:53;23.20;54.10
40932;DHT22;36257;46.052;12.540;2022-09-21T10:03:22;23.00;52.00
40932;DHT22;36257;46.052;12.540;2022-09-21T10:05:48;23.10;55.30
40932;DHT22;36257;46.052;12.540;2022-09-21T10:08:41;23.40;54.40
40932;DHT22;36257;46.052;12.540;2022-09-21T10:11:08;23.60;53.60
40932;DHT22;36257;46.052;12.540;2022-09-21T10:13:36;24.00;54.70
40932;DHT22;36257;46.052;12.540;2022-09-21T10:16:09;24.30;53.40
40932;DHT22;36257;46.052;12.540;2022-09-21T10:18:46;24.20;51.40
40932;DHT22;36257;46.052;12.540;2022-09-21T10:23:55;23.60;50.90
40932;DHT22;36257;46.052;12.540;2022-09-21T10:26:23;23.20;50.50
40932;DHT22;36257;46.052;12.540;2022-09-21T10:28:58;23.30;51.80
40932;DHT22;36257;46.052;12.540;2022-09-21T10:31:29;23.70;53.80
40932;DHT22;36257;46.052;12.540;2022-09-21T10:34:05;24.30;51.70
40932;DHT22;36257;46.052;12.540;2022-09-21T10:36:36;24.70;51.00
40932;DHT22;36257;46.052;12.540;2022-09-21T10:44:38;24.20;50.50
40932;DHT22;36257;46.052;12.540;2022-09-21T10:49:54;23.60;51.40
40932;DHT22;36257;46.052;12.540;2022-09-21T10:52:35;23.60;51.20
40932;DHT22;36257;46.052;12.540;2022-09-21T10:55:03;23.60;51.90
40932;DHT22;36257;46.052;12.540;2022-09-21T10:57:29;24.10;51.30
40932;DHT22;36257;46.052;12.540;2022-09-21T10:59:56;24.70;50.80
40932;DHT22;36257;46.052;12.540;2022-09-21T11:05:14;25.00;46.60
40932;DHT22;36257;46.052;12.540;2022-09-21T11:08:03;24.70;50.10
40932;DHT22;36257;46.052;12.540;2022-09-21T11:10:37;24.90;50.20
40932;DHT22;36257;46.052;12.540;2022-09-21T11:13:27;24.90;48.60
40932;DHT22;36257;46.052;12.540;2022-09-21T11:24:48;24.70;46.80
40932;DHT22;36257;46.052;12.540;2022-09-21T11:27:23;24.60;46.90
40932;DHT22;36257;46.052;12.540;2022-09-21T11:35:21;24.70;49.00
40932;DHT22;36257;46.052;12.540;2022-09-21T11:37:54;25.10;46.70
40932;DHT22;36257;46.052;12.540;2022-09-21T11:45:59;25.80;45.30
40932;DHT22;36257;46.052;12.540;2022-09-21T11:56:30;26.20;43.70
40932;DHT22;36257;46.052;12.540;2022-09-21T11:59:30;26.00;45.40
40932;DHT22;36257;46.052;12.540;2022-09-21T12:02:28;25.80;45.70
40932;DHT22;36257;46.052;12.540;2022-09-21T12:13:37;25.30;46.50
40932;DHT22;36257;46.052;12.540;2022-09-21T12:16:17;24.90;46.80
40932;DHT22;36257;46.052;12.540;2022-09-21T12:21:46;25.50;48.10
40932;DHT22;36257;46.052;12.540;2022-09-21T12:24:26;26.00;47.10
40932;DHT22;36257;46.052;12.540;2022-09-21T12:26:56;26.30;47.10
40932;DHT22;36257;46.052;12.540;2022-09-21T12:29:37;26.10;45.90
40932;DHT22;36257;46.052;12.540;2022-09-21T12:32:38;26.00;47.50
40932;DHT22;36257;46.052;12.540;2022-09-21T12:35:14;26.10;47.80
40932;DHT22;36257;46.052;12.540;2022-09-21T12:37:46;25.90;45.30
40932;DHT22;36257;46.052;12.540;2022-09-21T12:40:36;25.60;43.60
40932;DHT22;36257;46.052;12.540;2022-09-21T12:43:08;25.60;45.20
40932;DHT22;36257;46.052;12.540;2022-09-21T12:45:45;25.60;46.30
40932;DHT22;36257;46.052;12.540;2022-09-21T12:48:28;25.80;45.20
40932;DHT22;36257;46.052;12.540;2022-09-21T12:53:50;25.80;44.10
40932;DHT22;36257;46.052;12.540;2022-09-21T12:56:42;26.00;46.70
40932;DHT22;36257;46.052;12.540;2022-09-21T12:59:29;26.30;47.60
40932;DHT22;36257;46.052;12.540;2022-09-21T13:05:09;26.10;47.60
40932;DHT22;36257;46.052;12.540;2022-09-21T13:12:52;26.40;44.90
40932;DHT22;36257;46.052;12.540;2022-09-21T13:15:24;26.10;48.90
40932;DHT22;36257;46.052;12.540;2022-09-21T13:18:05;26.30;48.70
40932;DHT22;36257;46.052;12.540;2022-09-21T13:20:38;26.30;45.20
40932;DHT22;36257;46.052;12.540;2022-09-21T13:23:04;26.00;44.60
40932;DHT22;36257;46.052;12.540;2022-09-21T13:25:32;26.20;44.40
40932;DHT22;36257;46.052;12.540;2022-09-21T13:33:30;25.90;45.40
40932;DHT22;36257;46.052;12.540;2022-09-21T13:36:09;25.60;46.90
40932;DHT22;36257;46.052;12.540;2022-09-21T13:41:27;25.50;46.80
40932;DHT22;36257;46.052;12.540;2022-09-21T13:49:24;25.30;46.30
40932;DHT22;36257;46.052;12.540;2022-09-21T13:52:36;25.00;46.90
40932;DHT22;36257;46.052;12.540;2022-09-21T13:54:50;24.90;47.10
40932;DHT22;36257;46.052;12.540;2022-09-21T13:59:43;24.70;49.00
40932;DHT22;36257;46.052;12.540;2022-09-21T14:02:29;24.60;49.80
40932;DHT22;36257;46.052;12.540;2022-09-21T14:05:00;24.50;49.30
40932;DHT22;36257;46.052;12.540;2022-09-21T14:07:29;24.10;48.20
40932;DHT22;36257;46.052;12.540;2022-09-21T14:09:58;23.90;51.60
40932;DHT22;36257;46.052;12.540;2022-09-21T14:12:26;23.80;50.40
40932;DHT22;36257;46.052;12.540;2022-09-21T14:17:44;23.20;53.10
40932;DHT22;36257;46.052;12.540;2022-09-21T14:20:32;23.20;51.30
40932;DHT22;36257;46.052;12.540;2022-09-21T14:25:58;23.00;50.70
40932;DHT22;36257;46.052;12.540;2022-09-21T14:28:33;22.50;51.30
40932;DHT22;36257;46.052;12.540;2022-09-21T14:31:16;22.00;52.80
40932;DHT22;36257;46.052;12.540;2022-09-21T14:33:53;21.80;52.20
40932;DHT22;36257;46.052;12.540;2022-09-21T14:36:27;21.70;52.70
40932;DHT22;36257;46.052;12.540;2022-09-21T14:39:01;21.70;52.90
40932;DHT22;36257;46.052;12.540;2022-09-21T14:41:38;21.50;53.30
40932;DHT22;36257;46.052;12.540;2022-09-21T14:44:05;21.40;53.10
40932;DHT22;36257;46.052;12.540;2022-09-21T14:54:32;21.20;55.80
40932;DHT22;36257;46.052;12.540;2022-09-21T14:57:25;21.20;54.10
40932;DHT22;36257;46.052;12.540;2022-09-21T15:00:18;21.20;54.70
40932;DHT22;36257;46.052;12.540;2022-09-21T15:05:45;20.90;54.60
40932;DHT22;36257;46.052;12.540;2022-09-21T15:11:31;21.00;53.30
40932;DHT22;36257;46.052;12.540;2022-09-21T15:16:48;20.80;55.20
40932;DHT22;36257;46.052;12.540;2022-09-21T15:21:45;20.50;55.00
40932;DHT22;36257;46.052;12.540;2022-09-21T15:26:49;20.50;55.00
40932;DHT22;36257;46.052;12.540;2022-09-21T15:29:26;20.50;54.90
40932;DHT22;36257;46.052;12.540;2022-09-21T15:31:53;20.40;54.10
40932;DHT22;36257;46.052;12.540;2022-09-21T15:34:19;20.50;53.80
40932;DHT22;36257;46.052;12.540;2022-09-21T15:36:46;20.50;53.60
40932;DHT22;36257;46.052;12.540;2022-09-21T15:39:30;20.50;53.90
40932;DHT22;36257;46.052;12.540;2022-09-21T15:42:19;20.40;55.60
40932;DHT22;36257;46.052;12.540;2022-09-21T15:44:47;20.30;55.60
40932;DHT22;36257;46.052;12.540;2022-09-21T15:47:18;20.20;56.90
40932;DHT22;36257;46.052;12.540;2022-09-21T15:49:44;20.20;55.40
40932;DHT22;36257;46.052;12.540;2022-09-21T15:52:27;20.20;56.10
40932;DHT22;36257;46.052;12.540;2022-09-21T15:55:00;20.20;56.30
40932;DHT22;36257;46.052;12.540;2022-09-21T15:57:33;20.10;55.40
40932;DHT22;36257;46.052;12.540;2022-09-21T16:00:05;20.10;55.40
40932;DHT22;36257;46.052;12.540;2022-09-21T16:02:37;20.20;56.70
40932;DHT22;36257;46.052;12.540;2022-09-21T16:05:06;20.10;57.70
40932;DHT22;36257;46.052;12.540;2022-09-21T16:07:35;20.00;55.90
40932;DHT22;36257;46.052;12.540;2022-09-21T16:10:08;19.90;55.40
40932;DHT22;36257;46.052;12.540;2022-09-21T16:12:48;19.90;55.80
40932;DHT22;36257;46.052;12.540;2022-09-21T16:15:17;19.80;56.40
40932;DHT22;36257;46.052;12.540;2022-09-21T16:18:27;19.70;56.60
40932;DHT22;36257;46.052;12.540;2022-09-21T16:20:54;19.60;57.20
40932;DHT22;36257;46.052;12.540;2022-09-21T16:23:22;19.50;56.90
40932;DHT22;36257;46.052;12.540;2022-09-21T16:25:59;19.40;57.10
40932;DHT22;36257;46.052;12.540;2022-09-21T16:28:39;19.40;57.50
40932;DHT22;36257;46.052;12.540;2022-09-21T16:38:43;19.30;59.60
40932;DHT22;36257;46.052;12.540;2022-09-21T16:41:11;19.40;59.10
40932;DHT22;36257;46.052;12.540;2022-09-21T16:43:37;19.30;59.60
40932;DHT22;36257;46.052;12.540;2022-09-21T16:46:07;19.30;60.00
40932;DHT22;36257;46.052;12.540;2022-09-21T16:48:33;19.40;60.80
40932;DHT22;36257;46.052;12.540;2022-09-21T16:50:58;19.20;61.20
40932;DHT22;36257;46.052;12.540;2022-09-21T16:53:24;19.20;61.20
40932;DHT22;36257;46.052;12.540;2022-09-21T16:55:51;19.20;61.50
40932;DHT22;36257;46.052;12.540;2022-09-21T16:58:18;19.10;61.40
40932;DHT22;36257;46.052;12.540;2022-09-21T17:00:49;19.00;61.60
40932;DHT22;36257;46.052;12.540;2022-09-21T17:03:16;18.80;62.10
40932;DHT22;36257;46.052;12.540;2022-09-21T17:05:42;18.70;62.20
40932;DHT22;36257;46.052;12.540;2022-09-21T17:08:09;18.70;62.00
40932;DHT22;36257;46.052;12.540;2022-09-21T17:10:41;18.70;62.00
40932;DHT22;36257;46.052;12.540;2022-09-21T17:13:08;18.40;61.90
40932;DHT22;36257;46.052;12.540;2022-09-21T17:15:35;18.30;62.20
40932;DHT22;36257;46.052;12.540;2022-09-21T17:18:03;18.20;62.60
40932;DHT22;36257;46.052;12.540;2022-09-21T17:20:38;18.20;63.10
40932;DHT22;36257;46.052;12.540;2022-09-21T17:23:04;18.30;62.00
40932;DHT22;36257;46.052;12.540;2022-09-21T17:25:31;18.30;61.10
40932;DHT22;36257;46.052;12.540;2022-09-21T17:27:58;18.30;61.60
40932;DHT22;36257;46.052;12.540;2022-09-21T17:30:25;18.10;62.60
40932;DHT22;36257;46.052;12.540;2022-09-21T17:32:51;18.00;63.20
40932;DHT22;36257;46.052;12.540;2022-09-21T17:37:53;17.90;61.90
40932;DHT22;36257;46.052;12.540;2022-09-21T17:40:19;17.90;62.80
40932;DHT22;36257;46.052;12.540;2022-09-21T17:42:45;17.90;63.20
40932;DHT22;36257;46.052;12.540;2022-09-21T17:45:30;17.90;63.40
40932;DHT22;36257;46.052;12.540;2022-09-21T17:48:00;17.90;63.80
40932;DHT22;36257;46.052;12.540;2022-09-21T17:50:27;17.90;63.40
40932;DHT22;36257;46.052;12.540;2022-09-21T17:52:54;17.90;63.70
40932;DHT22;36257;46.052;12.540;2022-09-21T17:55:43;17.80;63.70
40932;DHT22;36257;46.052;12.540;2022-09-21T17:58:44;17.70;64.20
40932;DHT22;36257;46.052;12.540;2022-09-21T18:01:41;17.70;64.40
40932;DHT22;36257;46.052;12.540;2022-09-21T18:04:07;17.70;64.20
40932;DHT22;36257;46.052;12.540;2022-09-21T18:06:35;17.70;64.30
40932;DHT22;36257;46.052;12.540;2022-09-21T18:09:01;17.60;63.90
40932;DHT22;36257;46.052;12.540;2022-09-21T18:20:17;17.70;65.60
40932;DHT22;36257;46.052;12.540;2022-09-21T18:25:37;17.30;66.60
40932;DHT22;36257;46.052;12.540;2022-09-21T18:28:21;17.20;67.30
40932;DHT22;36257;46.052;12.540;2022-09-21T18:43:03;16.90;67.50
40932;DHT22;36257;46.052;12.540;2022-09-21T18:45:46;16.80;66.50
40932;DHT22;36257;46.052;12.540;2022-09-21T18:50:58;16.70;67.90
40932;DHT22;36257;46.052;12.540;2022-09-21T18:53:35;16.60;67.90
40932;DHT22;36257;46.052;12.540;2022-09-21T18:56:03;16.60;68.80
40932;DHT22;36257;46.052;12.540;2022-09-21T18:58:30;16.60;68.40
40932;DHT22;36257;46.052;12.540;2022-09-21T19:00:56;16.40;68.40
40932;DHT22;36257;46.052;12.540;2022-09-21T19:03:22;16.40;68.40
40932;DHT22;36257;46.052;12.540;2022-09-21T19:11:32;16.30;68.50
40932;DHT22;36257;46.052;12.540;2022-09-21T19:16:32;16.40;66.70
40932;DHT22;36257;46.052;12.540;2022-09-21T19:19:19;16.40;66.50
40932;DHT22;36257;46.052;12.540;2022-09-21T19:21:54;16.30;67.10
40932;DHT22;36257;46.052;12.540;2022-09-21T19:24:48;16.30;67.60